createdAt,value
2022-12-01T00:00:35.704Z,29.64
2022-12-01T00:03:07.292Z,30.07
2022-12-01T00:05:38.973Z,30.09
2022-12-01T00:08:10.969Z,30.09
2022-12-01T00:10:42.319Z,30.13
2022-12-01T00:13:13.957Z,30.14
2022-12-01T00:15:45.855Z,30.15
2022-12-01T00:18:17.299Z,30.14
2022-12-01T00:20:52.474Z,30.09
2022-12-01T00:23:24.700Z,30.07
2022-12-01T00:25:55.957Z,30.07
2022-12-01T00:28:27.293Z,30.07
2022-12-01T00:30:58.607Z,30.00
2022-12-01T00:33:30.092Z,30.02
2022-12-01T00:36:05.958Z,29.86
2022-12-01T00:38:38.366Z,30.01
2022-12-01T00:41:10.019Z,30.20
2022-12-01T00:43:41.356Z,30.14
2022-12-01T00:46:12.802Z,30.30
2022-12-01T00:48:44.213Z,30.34
2022-12-01T00:51:15.537Z,30.30
2022-12-01T00:53:47.520Z,30.32
2022-12-01T00:56:18.200Z,30.15
2022-12-01T00:58:49.619Z,30.47
2022-12-01T01:01:21.062Z,30.45
2022-12-01T01:03:53.051Z,30.54
2022-12-01T01:06:24.456Z,30.58
2022-12-01T01:08:55.992Z,30.55
2022-12-01T01:11:27.659Z,30.64
2022-12-01T01:14:01.085Z,30.58
2022-12-01T01:16:33.060Z,30.70
2022-12-01T01:19:04.795Z,30.72
2022-12-01T01:21:36.111Z,30.57
2022-12-01T01:24:07.881Z,30.72
2022-12-01T01:26:39.665Z,30.77
2022-12-01T01:29:11.073Z,30.75
2022-12-01T01:31:43.750Z,30.71
2022-12-01T01:34:15.176Z,30.80
2022-12-01T01:36:47.351Z,30.77
2022-12-01T01:39:19.318Z,30.72
2022-12-01T01:41:51.022Z,30.87
2022-12-01T01:44:57.075Z,30.78
2022-12-01T01:47:46.698Z,30.76
2022-12-01T01:50:23.361Z,30.79
2022-12-01T01:53:02.002Z,30.93
2022-12-01T01:55:35.785Z,30.11
2022-12-01T01:58:11.359Z,30.13
2022-12-01T02:00:45.679Z,30.58
2022-12-01T02:03:19.032Z,31.00
2022-12-01T02:05:50.504Z,30.87
2022-12-01T02:08:21.775Z,30.88
2022-12-01T02:10:53.125Z,31.00
2022-12-01T02:13:46.037Z,30.94
2022-12-01T02:16:41.889Z,30.63
2022-12-01T02:20:05.125Z,30.42
2022-12-01T02:23:08.101Z,30.89
2022-12-01T02:25:51.750Z,30.64
2022-12-01T02:28:41.571Z,31.00
2022-12-01T02:31:32.859Z,30.63
2022-12-01T02:34:27.588Z,30.96
2022-12-01T02:37:20.700Z,31.07
2022-12-01T02:40:05.454Z,31.13
2022-12-01T02:42:58.012Z,31.07
2022-12-01T02:46:00.244Z,31.09
2022-12-01T02:48:44.721Z,31.16
2022-12-01T02:51:37.971Z,31.06
2022-12-01T02:54:10.371Z,31.13
2022-12-01T02:56:41.673Z,31.27
2022-12-01T02:59:17.507Z,30.80
2022-12-01T03:02:31.217Z,31.29
2022-12-01T03:05:02.549Z,31.29
2022-12-01T03:08:04.834Z,31.20
2022-12-01T03:10:56.009Z,30.79
2022-12-01T03:13:36.366Z,31.35
2022-12-01T03:16:18.537Z,31.36
2022-12-01T03:18:49.933Z,31.38
2022-12-01T03:21:28.710Z,31.29
2022-12-01T03:24:13.278Z,31.33
2022-12-01T03:26:50.081Z,31.44
2022-12-01T03:29:35.286Z,31.36
2022-12-01T03:32:22.851Z,31.50
2022-12-01T03:35:02.816Z,31.47
2022-12-01T03:37:57.661Z,31.42
2022-12-01T03:40:32.894Z,31.54
2022-12-01T03:43:11.551Z,31.01
2022-12-01T03:45:48.583Z,31.43
2022-12-01T03:48:20.777Z,31.58
2022-12-01T03:51:06.849Z,31.43
2022-12-01T03:53:49.999Z,31.15
2022-12-01T03:56:27.147Z,31.66
2022-12-01T03:59:02.141Z,31.21
2022-12-01T04:01:36.070Z,31.60
2022-12-01T04:04:13.362Z,31.34
2022-12-01T04:06:49.502Z,31.61
2022-12-01T04:09:20.943Z,31.63
2022-12-01T04:12:10.367Z,31.60
2022-12-01T04:14:42.080Z,31.39
2022-12-01T04:17:13.336Z,31.66
2022-12-01T04:19:44.664Z,31.76
2022-12-01T04:22:16.059Z,31.74
2022-12-01T04:24:47.740Z,31.79
2022-12-01T04:27:19.457Z,31.76
2022-12-01T04:29:51.129Z,31.83
2022-12-01T04:32:22.121Z,31.56
2022-12-01T04:34:53.967Z,31.82
2022-12-01T04:37:24.719Z,31.60
2022-12-01T04:39:55.968Z,31.90
2022-12-01T04:42:27.481Z,31.63
2022-12-01T04:44:58.809Z,31.88
2022-12-01T04:47:30.428Z,31.96
2022-12-01T04:50:02.917Z,31.94
2022-12-01T04:52:35.503Z,31.97
2022-12-01T04:55:07.130Z,32.00
2022-12-01T04:57:39.158Z,31.90
2022-12-01T05:00:14.737Z,32.04
2022-12-01T05:02:47.460Z,31.98
2022-12-01T05:05:18.819Z,32.04
2022-12-01T05:07:50.168Z,31.97
2022-12-01T05:10:21.833Z,32.05
2022-12-01T05:12:53.375Z,31.99
2022-12-01T05:15:24.689Z,32.09
2022-12-01T05:17:55.972Z,32.02
2022-12-01T05:20:46.619Z,32.12
2022-12-01T05:23:18.048Z,32.11
2022-12-01T05:25:49.311Z,32.13
2022-12-01T05:28:21.361Z,32.14
2022-12-01T05:30:53.524Z,32.19
2022-12-01T05:33:25.573Z,31.87
2022-12-01T05:35:57.585Z,32.16
2022-12-01T05:38:29.277Z,32.21
2022-12-01T05:41:00.768Z,32.22
2022-12-01T05:43:32.055Z,32.22
2022-12-01T05:46:03.560Z,32.15
2022-12-01T05:48:35.026Z,32.25
2022-12-01T05:51:14.597Z,31.94
2022-12-01T05:53:46.424Z,32.30
2022-12-01T05:56:18.512Z,32.22
2022-12-01T05:58:50.343Z,32.33
2022-12-01T06:01:21.791Z,32.33
2022-12-01T06:03:54.649Z,32.35
2022-12-01T06:06:26.470Z,32.39
2022-12-01T06:08:57.925Z,32.40
2022-12-01T06:11:29.241Z,32.11
2022-12-01T06:14:00.614Z,32.43
2022-12-01T06:16:31.916Z,32.44
2022-12-01T06:19:03.318Z,32.41
2022-12-01T06:21:34.752Z,32.49
2022-12-01T06:24:06.489Z,32.38
2022-12-01T06:26:38.214Z,32.54
2022-12-01T06:29:09.648Z,32.55
2022-12-01T06:31:41.032Z,32.43
2022-12-01T06:34:13.554Z,32.10
2022-12-01T06:36:45.469Z,32.61
2022-12-01T06:39:18.683Z,32.50
2022-12-01T06:41:50.074Z,32.61
2022-12-01T06:44:21.645Z,32.66
2022-12-01T06:46:54.359Z,32.36
2022-12-01T06:49:25.826Z,32.67
2022-12-01T06:51:57.161Z,32.60
2022-12-01T06:54:28.460Z,32.71
2022-12-01T06:57:00.154Z,32.74
2022-12-01T06:59:31.236Z,32.47
2022-12-01T07:02:04.705Z,32.76
2022-12-01T07:04:36.144Z,32.81
2022-12-01T07:07:08.816Z,32.84
2022-12-01T07:09:40.231Z,32.85
2022-12-01T07:12:11.607Z,32.72
2022-12-01T07:14:43.957Z,32.86
2022-12-01T07:17:15.160Z,32.86
2022-12-01T07:19:46.628Z,32.91
2022-12-01T07:22:18.295Z,32.40
2022-12-01T07:24:49.782Z,32.92
2022-12-01T07:27:21.164Z,32.93
2022-12-01T07:29:52.489Z,32.94
2022-12-01T07:32:24.070Z,32.97
2022-12-01T07:34:55.980Z,32.98
2022-12-01T07:37:27.477Z,32.99
2022-12-01T07:39:59.248Z,33.02
2022-12-01T07:42:30.557Z,33.02
2022-12-01T07:45:01.940Z,33.04
2022-12-01T07:47:33.203Z,33.05
2022-12-01T07:50:06.016Z,33.08
2022-12-01T07:52:37.610Z,32.76
2022-12-01T07:55:09.686Z,33.03
2022-12-01T07:57:41.013Z,33.11
2022-12-01T08:00:12.893Z,33.11
2022-12-01T08:02:44.304Z,33.11
2022-12-01T08:05:15.668Z,33.15
2022-12-01T08:07:47.038Z,33.15
2022-12-01T08:10:18.758Z,33.03
2022-12-01T08:12:50.192Z,33.18
2022-12-01T08:15:22.083Z,33.09
2022-12-01T08:17:53.751Z,33.16
2022-12-01T08:20:25.104Z,33.21
2022-12-01T08:22:56.378Z,33.20
2022-12-01T08:25:27.651Z,33.21
2022-12-01T08:27:59.363Z,33.11
2022-12-01T08:30:32.539Z,33.15
2022-12-01T08:33:03.863Z,33.24
2022-12-01T08:35:38.464Z,32.78
2022-12-01T08:38:15.664Z,33.14
2022-12-01T08:40:47.191Z,33.25
2022-12-01T08:43:41.469Z,32.97
2022-12-01T08:46:09.751Z,33.23
2022-12-01T08:48:42.252Z,33.09
2022-12-01T08:51:18.507Z,33.28
2022-12-01T08:53:51.666Z,33.25
2022-12-01T08:56:35.652Z,33.15
2022-12-01T08:59:07.657Z,33.26
2022-12-01T09:02:00.450Z,33.26
2022-12-01T09:04:35.270Z,33.25
2022-12-01T09:07:06.871Z,33.22
2022-12-01T09:09:38.505Z,33.25
2022-12-01T09:12:10.657Z,33.25
2022-12-01T09:14:47.097Z,32.84
2022-12-01T09:17:19.747Z,33.12
2022-12-01T09:19:51.629Z,33.01
2022-12-01T09:22:23.384Z,32.90
2022-12-01T09:24:54.599Z,32.83
2022-12-01T09:27:25.855Z,32.71
2022-12-01T09:29:57.610Z,32.75
2022-12-01T09:32:28.642Z,32.48
2022-12-01T09:35:00.006Z,32.58
2022-12-01T09:37:31.363Z,32.65
2022-12-01T09:40:03.151Z,32.62
2022-12-01T09:42:35.697Z,32.57
2022-12-01T09:45:08.117Z,32.59
2022-12-01T09:47:41.514Z,32.57
2022-12-01T09:50:20.981Z,32.56
2022-12-01T09:53:17.134Z,32.49
2022-12-01T09:55:48.739Z,32.49
2022-12-01T09:58:24.932Z,32.34
2022-12-01T10:00:57.218Z,32.45
2022-12-01T10:03:47.902Z,31.89
2022-12-01T10:06:28.553Z,32.36
2022-12-01T10:09:08.192Z,32.39
2022-12-01T10:11:44.254Z,32.42
2022-12-01T10:14:22.554Z,32.30
2022-12-01T10:17:16.666Z,32.40
2022-12-01T10:19:53.478Z,32.10
2022-12-01T10:22:43.526Z,32.39
2022-12-01T10:25:28.448Z,32.38
2022-12-01T10:28:07.375Z,31.94
2022-12-01T10:30:51.277Z,31.94
2022-12-01T10:33:34.798Z,31.92
2022-12-01T10:36:06.339Z,32.35
2022-12-01T10:38:38.644Z,32.17
2022-12-01T10:41:16.505Z,32.30
2022-12-01T10:43:52.266Z,32.39
2022-12-01T10:46:34.331Z,32.41
2022-12-01T10:49:19.714Z,32.08
2022-12-01T10:51:54.714Z,31.77
2022-12-01T10:54:35.908Z,32.63
2022-12-01T10:57:16.158Z,32.69
2022-12-01T11:00:10.498Z,32.64
2022-12-01T11:02:45.950Z,31.96
2022-12-01T11:05:27.913Z,32.77
2022-12-01T11:07:59.648Z,32.77
2022-12-01T11:10:39.371Z,32.82
2022-12-01T11:13:25.600Z,32.85
2022-12-01T11:15:59.509Z,32.36
2022-12-01T11:18:34.949Z,32.87
2022-12-01T11:21:16.613Z,32.89
2022-12-01T11:23:50.338Z,32.41
2022-12-01T11:26:30.471Z,32.88
2022-12-01T11:29:03.368Z,32.87
2022-12-01T11:31:49.670Z,32.61
2022-12-01T11:34:41.215Z,32.44
2022-12-01T11:37:20.250Z,32.52
2022-12-01T11:39:53.799Z,32.88
2022-12-01T11:42:31.079Z,32.88
2022-12-01T11:45:25.153Z,32.88
2022-12-01T11:48:22.639Z,32.87
2022-12-01T11:51:29.383Z,32.30
2022-12-01T11:54:24.387Z,32.77
2022-12-01T11:57:31.651Z,32.82
2022-12-01T11:59:50.227Z,32.33
2022-12-01T12:02:56.999Z,32.48
2022-12-01T12:05:44.030Z,32.66
2022-12-01T12:08:30.991Z,32.78
2022-12-01T12:11:02.392Z,32.81
2022-12-01T12:13:41.974Z,32.40
2022-12-01T12:16:22.294Z,32.78
2022-12-01T12:19:17.000Z,32.67
2022-12-01T12:22:09.695Z,32.77
2022-12-01T12:24:57.131Z,32.70
2022-12-01T12:27:43.189Z,32.61
2022-12-01T12:30:25.804Z,32.57
2022-12-01T12:33:12.278Z,32.51
2022-12-01T12:36:21.371Z,32.27
2022-12-01T12:38:58.095Z,32.33
2022-12-01T12:41:36.467Z,32.27
2022-12-01T12:44:37.801Z,32.28
2022-12-01T12:47:21.701Z,32.30
2022-12-01T12:50:05.929Z,32.24
2022-12-01T12:52:42.763Z,31.80
2022-12-01T12:55:17.244Z,32.22
2022-12-01T12:57:54.949Z,32.22
2022-12-01T13:00:37.767Z,32.14
2022-12-01T13:03:46.548Z,31.56
2022-12-01T13:06:34.577Z,32.15
2022-12-01T13:09:38.254Z,32.08
2022-12-01T13:12:28.311Z,31.80
2022-12-01T13:15:16.945Z,32.13
2022-12-01T13:18:28.428Z,32.03
2022-12-01T13:21:00.995Z,32.01
2022-12-01T13:23:34.754Z,31.99
2022-12-01T13:26:10.648Z,32.07
2022-12-01T13:28:56.633Z,32.08
2022-12-01T13:31:28.181Z,32.08
2022-12-01T13:34:03.890Z,31.86
2022-12-01T13:36:46.686Z,31.69
2022-12-01T13:39:30.890Z,31.96
2022-12-01T13:42:07.601Z,31.90
2022-12-01T13:44:53.842Z,31.75
2022-12-01T13:47:40.207Z,31.75
2022-12-01T13:50:49.139Z,31.59
2022-12-01T13:53:28.075Z,31.60
2022-12-01T13:56:17.346Z,31.50
2022-12-01T13:58:56.619Z,31.42
2022-12-01T14:01:28.090Z,31.41
2022-12-01T14:04:18.172Z,31.36
2022-12-01T14:06:52.088Z,31.30
2022-12-01T14:09:40.000Z,31.28
2022-12-01T14:12:22.036Z,31.22
2022-12-01T14:15:01.800Z,31.05
2022-12-01T14:17:39.782Z,30.68
2022-12-01T14:20:18.085Z,31.09
2022-12-01T14:23:11.059Z,30.73
2022-12-01T14:25:44.425Z,30.57
2022-12-01T14:28:19.742Z,31.02
2022-12-01T14:30:53.259Z,31.02
2022-12-01T14:33:46.414Z,30.93
2022-12-01T14:36:26.744Z,31.02
2022-12-01T14:39:01.153Z,31.03
2022-12-01T14:42:10.904Z,30.98
2022-12-01T14:44:56.703Z,30.94
2022-12-01T14:47:44.269Z,30.63
2022-12-01T14:50:26.448Z,30.94
2022-12-01T14:53:04.552Z,30.71
2022-12-01T14:55:44.050Z,30.00
2022-12-01T14:58:28.536Z,30.41
2022-12-01T15:01:14.747Z,30.90
2022-12-01T15:03:50.593Z,30.35
2022-12-01T15:06:24.746Z,30.38
2022-12-01T15:09:35.522Z,30.80
2022-12-01T15:12:08.781Z,30.69
2022-12-01T15:14:48.686Z,30.34
2022-12-01T15:17:38.520Z,30.22
2022-12-01T15:20:33.674Z,30.69
2022-12-01T15:23:14.445Z,30.34
2022-12-01T15:25:48.001Z,30.47
2022-12-01T15:28:22.598Z,30.70
2022-12-01T15:30:56.942Z,30.63
2022-12-01T15:33:37.173Z,30.66
2022-12-01T15:36:09.904Z,30.64
2022-12-01T15:38:44.376Z,30.06
2022-12-01T15:41:31.291Z,30.65
2022-12-01T15:44:05.121Z,30.64
2022-12-01T15:46:37.034Z,30.62
2022-12-01T15:49:22.990Z,30.41
2022-12-01T15:51:55.555Z,30.49
2022-12-01T15:54:29.377Z,30.59
2022-12-01T15:57:03.020Z,30.57
2022-12-01T15:59:44.141Z,30.55
2022-12-01T16:02:38.639Z,30.45
2022-12-01T16:05:16.047Z,30.54
2022-12-01T16:10:40.534Z,30.41
2022-12-01T16:13:49.252Z,30.41
2022-12-01T16:16:38.894Z,30.41
2022-12-01T16:19:10.193Z,30.46
2022-12-01T16:22:27.230Z,30.36
2022-12-01T16:24:58.555Z,30.41
2022-12-01T16:27:31.181Z,30.39
2022-12-01T16:30:24.394Z,30.32
2022-12-01T16:33:04.684Z,30.36
2022-12-01T16:35:36.516Z,30.35
2022-12-01T16:38:24.457Z,29.46
2022-12-01T16:40:58.275Z,30.31
2022-12-01T16:43:31.338Z,30.28
2022-12-01T16:46:06.149Z,29.89
2022-12-01T16:48:39.150Z,30.24
2022-12-01T16:51:14.645Z,30.19
2022-12-01T16:53:50.802Z,30.27
2022-12-01T16:56:22.643Z,30.26
2022-12-01T16:58:53.918Z,30.33
2022-12-01T17:01:25.302Z,30.25
2022-12-01T17:03:56.704Z,30.41
2022-12-01T17:06:27.950Z,30.40
2022-12-01T17:08:59.194Z,30.40
2022-12-01T17:11:30.984Z,30.40
2022-12-01T17:14:02.641Z,30.37
2022-12-01T17:16:33.894Z,30.32
2022-12-01T17:19:05.793Z,30.43
2022-12-01T17:21:36.456Z,30.12
2022-12-01T17:24:09.561Z,30.37
2022-12-01T17:26:40.978Z,30.35
2022-12-01T17:29:12.344Z,30.33
2022-12-01T17:31:43.876Z,30.37
2022-12-01T17:34:15.442Z,30.37
2022-12-01T17:36:46.884Z,30.29
2022-12-01T17:39:18.127Z,30.38
2022-12-01T17:41:49.426Z,30.37
2022-12-01T17:44:20.620Z,30.41
2022-12-01T17:46:52.595Z,30.36
2022-12-01T17:49:24.033Z,30.36
2022-12-01T17:51:55.270Z,30.33
2022-12-01T17:54:26.556Z,30.34
2022-12-01T17:56:58.009Z,30.29
2022-12-01T17:59:29.336Z,30.18
2022-12-01T18:02:00.716Z,30.28
2022-12-01T18:04:33.595Z,29.94
2022-12-01T18:07:05.295Z,30.22
2022-12-01T18:09:36.808Z,30.23
2022-12-01T18:12:08.191Z,30.13
2022-12-01T18:14:39.999Z,30.15
2022-12-01T18:17:11.334Z,30.17
2022-12-01T18:19:42.614Z,30.09
2022-12-01T18:22:13.993Z,30.10
2022-12-01T18:24:45.242Z,30.15
2022-12-01T18:27:16.738Z,30.16
2022-12-01T18:29:48.019Z,30.19
2022-12-01T18:32:19.342Z,30.12
2022-12-01T18:34:53.513Z,30.12
2022-12-01T18:37:24.882Z,30.09
2022-12-01T18:39:59.834Z,30.08
2022-12-01T18:42:31.182Z,30.05
2022-12-01T18:45:02.918Z,29.98
2022-12-01T18:47:34.260Z,30.06
2022-12-01T18:50:06.224Z,30.01
2022-12-01T18:52:39.020Z,30.04
2022-12-01T18:55:10.834Z,29.96
2022-12-01T18:57:42.702Z,29.98
2022-12-01T19:00:14.831Z,29.99
2022-12-01T19:02:47.049Z,29.99
2022-12-01T19:05:18.347Z,29.98
2022-12-01T19:07:50.508Z,29.81
2022-12-01T19:10:22.039Z,29.96
2022-12-01T19:12:53.246Z,29.89
2022-12-01T19:15:24.694Z,29.90
2022-12-01T19:17:57.137Z,29.45
2022-12-01T19:20:28.372Z,29.80
2022-12-01T19:22:59.661Z,29.69
2022-12-01T19:25:31.212Z,29.76
2022-12-01T19:28:02.999Z,29.87
2022-12-01T19:30:34.694Z,29.79
2022-12-01T19:33:06.517Z,29.84
2022-12-01T19:35:38.215Z,29.81
2022-12-01T19:38:09.583Z,29.57
2022-12-01T19:40:41.312Z,29.82
2022-12-01T19:43:12.691Z,29.79
2022-12-01T19:45:43.959Z,29.78
2022-12-01T19:48:15.188Z,29.76
2022-12-01T19:50:46.491Z,29.75
2022-12-01T19:53:17.916Z,29.74
2022-12-01T19:55:49.139Z,29.47
2022-12-01T19:58:20.812Z,29.66
2022-12-01T20:00:52.597Z,29.75
2022-12-01T20:03:23.909Z,29.70
2022-12-01T20:05:55.205Z,29.69
2022-12-01T20:08:27.219Z,29.66
2022-12-01T20:11:01.470Z,29.71
2022-12-01T20:13:37.272Z,29.53
2022-12-01T20:16:14.402Z,28.81
2022-12-01T20:18:46.311Z,29.68
2022-12-01T20:21:26.516Z,29.69
2022-12-01T20:24:03.355Z,29.66
2022-12-01T20:26:43.780Z,29.13
2022-12-01T20:29:23.911Z,29.61
2022-12-01T20:31:57.840Z,29.64
2022-12-01T20:34:37.811Z,29.10
2022-12-01T20:37:09.746Z,29.52
2022-12-01T20:39:43.129Z,29.59
2022-12-01T20:42:15.063Z,29.47
2022-12-01T20:44:46.439Z,29.54
2022-12-01T20:47:20.045Z,29.51
2022-12-01T20:49:54.241Z,29.53
2022-12-01T20:52:29.851Z,29.56
2022-12-01T20:55:01.147Z,29.53
2022-12-01T20:57:32.446Z,29.46
2022-12-01T21:00:03.681Z,29.45
2022-12-01T21:02:35.055Z,29.49
2022-12-01T21:05:06.853Z,29.50
2022-12-01T21:07:38.185Z,29.49
2022-12-01T21:10:09.809Z,29.44
2022-12-01T21:13:00.445Z,29.48
2022-12-01T21:15:34.171Z,29.50
2022-12-01T21:18:19.065Z,29.17
2022-12-01T21:20:55.007Z,29.45
2022-12-01T21:23:28.968Z,29.11
2022-12-01T21:26:00.410Z,29.46
2022-12-01T21:28:32.609Z,29.23
2022-12-01T21:31:15.768Z,28.88
2022-12-01T21:33:47.621Z,29.39
2022-12-01T21:36:24.192Z,28.49
2022-12-01T21:39:01.971Z,28.84
2022-12-01T21:41:33.566Z,29.37
2022-12-01T21:44:15.012Z,29.26
2022-12-01T21:46:47.202Z,29.37
2022-12-01T21:49:35.789Z,28.95
2022-12-01T21:52:23.995Z,29.21
2022-12-01T21:54:55.938Z,29.26
2022-12-01T21:57:51.068Z,29.26
2022-12-01T22:00:35.946Z,29.32
2022-12-01T22:03:10.938Z,29.31
2022-12-01T22:06:07.121Z,29.28
2022-12-01T22:08:42.754Z,28.79
2022-12-01T22:11:24.920Z,29.22
2022-12-01T22:14:17.076Z,29.16
2022-12-01T22:17:16.621Z,29.15
2022-12-01T22:19:55.763Z,29.05
2022-12-01T22:22:32.425Z,29.13
2022-12-01T22:25:27.818Z,29.09
2022-12-01T22:28:01.585Z,28.85
2022-12-01T22:30:33.087Z,28.76
2022-12-01T22:33:07.581Z,29.12
2022-12-01T22:35:46.629Z,29.10
2022-12-01T22:38:31.197Z,29.11
2022-12-01T22:41:08.684Z,29.08
2022-12-01T22:43:47.881Z,28.99
2022-12-01T22:46:36.250Z,29.04
2022-12-01T22:49:24.335Z,29.02
2022-12-01T22:52:17.799Z,28.99
2022-12-01T22:54:51.365Z,28.93
2022-12-01T22:57:38.640Z,28.74
2022-12-01T23:00:18.522Z,28.47
2022-12-01T23:02:57.523Z,28.49
2022-12-01T23:05:31.870Z,29.00
2022-12-01T23:08:04.212Z,29.04
2022-12-01T23:10:37.053Z,29.11
2022-12-01T23:13:26.646Z,28.97
2022-12-01T23:15:58.437Z,29.16
2022-12-01T23:18:33.537Z,29.28
2022-12-01T23:21:05.419Z,29.22
2022-12-01T23:23:39.495Z,28.86
2022-12-01T23:26:11.212Z,29.39
2022-12-01T23:28:42.823Z,29.43
2022-12-01T23:31:14.218Z,29.45
2022-12-01T23:33:45.645Z,29.44
2022-12-01T23:36:30.052Z,29.08
2022-12-01T23:39:06.872Z,29.58
2022-12-01T23:41:52.708Z,29.24
2022-12-01T23:44:39.201Z,29.71
2022-12-01T23:47:31.262Z,29.65
2022-12-01T23:50:14.542Z,29.79
2022-12-01T23:52:45.920Z,29.83
2022-12-01T23:55:30.845Z,29.79
2022-12-01T23:58:03.324Z,29.73
